»·PEaware :: SWA1682 KOAK-KSNA

SWA1682 :: KOAK-KSNA

FLIGHT INFORMATION

Flight Status: Arrived
Operator:
Southwest Airlines
More flights by this operator :: More flights under this callsign
Pilot: Terry G. (25863)
Aircraft: BOEING 737-700
(B737)
More flights by this aircraft type
Origin: KOAK Metro Oakland Intl
United States
Destination: KSNA John Wayne-Orange Co
United States
More flights between these airports :: More routes between these airports
Route: COAST9 MCKEY TILLT TILLT2
File this flight plan on PilotEdge
Remarks:
Altitude:
(Current/Filed)
35,000ft
Speed:
(Current/Filed)
450kts
Departed: 13-Aug-19 03:27 PM
Arrived: 13-Aug-19 04:30 PM
Distance/Time
Traveled:
322nm/1:03
Distance/Time
To Go:
Arrived

Flight Plot

Page will automatically refresh every two minutes.

Flight plan parsing failed; only flown route is shown


Map Options




Map Legend


Flown Route
Filed Route
Departure Airport
Arrival Airport
Navaid (VOR, NDB)
Fix

Horizontal Profiles

Position Reports

Time Latitude Longitude Heading Altitude Ground
Speed
13-Aug-19 15:15 37.710182 -122.212228 125 14ft 0kts
13-Aug-19 15:16 37.710182 -122.212228 125 13ft 0kts
13-Aug-19 15:17 37.710182 -122.212228 125 13ft 0kts
13-Aug-19 15:18 37.710182 -122.212228 125 13ft 0kts
13-Aug-19 15:19 37.710182 -122.212228 125 13ft 0kts
13-Aug-19 15:20 37.710182 -122.212228 125 13ft 0kts
13-Aug-19 15:21 37.710469 -122.212735 125 13ft 2kts
13-Aug-19 15:22 37.710683 -122.213113 126 13ft 0kts
13-Aug-19 15:23 37.710683 -122.213113 126 13ft 0kts
13-Aug-19 15:24 37.708315 -122.216411 220 13ft 15kts
13-Aug-19 15:25 37.704326 -122.214643 130 13ft 22kts
13-Aug-19 15:26 37.704774 -122.219222 309 14ft 91kts
13-Aug-19 15:27 37.734387 -122.261419 312 2048ft 188kts
13-Aug-19 15:28 37.777883 -122.324689 310 3415ft 264kts
13-Aug-19 15:29 37.778582 -122.411262 224 7420ft 288kts
13-Aug-19 15:30 37.700637 -122.438290 188 11016ft 305kts
13-Aug-19 15:31 37.607075 -122.455529 188 13041ft 363kts
13-Aug-19 15:32 37.504587 -122.474214 188 15971ft 379kts
13-Aug-19 15:33 37.398076 -122.493555 188 18642ft 395kts
13-Aug-19 15:34 37.287284 -122.513697 188 21064ft 410kts
13-Aug-19 15:35 37.172504 -122.534499 188 23193ft 424kts
13-Aug-19 15:36 37.053668 -122.555865 188 25113ft 436kts
13-Aug-19 15:37 36.931620 -122.563122 172 26849ft 448kts
13-Aug-19 15:38 36.807994 -122.532106 168 28428ft 457kts
13-Aug-19 15:39 36.682265 -122.499230 167 29819ft 467kts
13-Aug-19 15:40 36.555523 -122.466448 167 31602ft 464kts
13-Aug-19 15:41 36.431759 -122.423943 149 33273ft 461kts
13-Aug-19 15:42 36.340982 -122.312719 130 34691ft 460kts
13-Aug-19 15:43 36.256960 -122.191236 130 35048ft 462kts
13-Aug-19 15:44 36.174046 -122.070911 130 35048ft 459kts
13-Aug-19 15:45 36.091395 -121.951006 130 35044ft 459kts
13-Aug-19 15:46 36.008231 -121.831020 130 35038ft 459kts
13-Aug-19 15:47 35.924976 -121.711360 131 35035ft 459kts
13-Aug-19 15:48 35.841640 -121.591998 131 35029ft 460kts
13-Aug-19 15:49 35.758234 -121.472979 131 35010ft 459kts
13-Aug-19 15:50 35.674598 -121.353812 131 34995ft 460kts
13-Aug-19 15:51 35.590629 -121.234729 131 35000ft 460kts
13-Aug-19 15:52 35.506896 -121.116040 129 34999ft 460kts
13-Aug-19 15:53 35.432541 -120.988987 134 35003ft 460kts
13-Aug-19 15:54 35.340673 -120.879886 139 35008ft 459kts
13-Aug-19 15:55 35.245080 -120.775809 139 35016ft 459kts
13-Aug-19 15:56 35.149169 -120.672607 139 35020ft 459kts
13-Aug-19 15:57 35.052912 -120.569831 141 35024ft 460kts
13-Aug-19 15:58 34.947925 -120.481905 147 35031ft 458kts
13-Aug-19 15:59 34.841238 -120.396167 147 35029ft 458kts
13-Aug-19 16:00 34.734769 -120.310517 147 35031ft 459kts
13-Aug-19 16:02 34.628527 -120.225372 147 35021ft 459kts
13-Aug-19 16:03 34.521504 -120.140024 148 35015ft 459kts
13-Aug-19 16:04 34.414797 -120.055154 148 35019ft 459kts
13-Aug-19 16:05 34.308331 -119.970182 148 35025ft 459kts
13-Aug-19 16:06 34.201578 -119.885511 147 35025ft 459kts
13-Aug-19 16:07 34.095765 -119.799433 140 33269ft 459kts
13-Aug-19 16:08 34.020107 -119.676897 120 30636ft 453kts
13-Aug-19 16:09 33.956344 -119.548714 121 28359ft 438kts
13-Aug-19 16:10 33.894170 -119.425270 120 26101ft 426kts
13-Aug-19 16:11 33.834245 -119.303785 120 23866ft 416kts
13-Aug-19 16:12 33.775695 -119.185521 120 21692ft 407kts
13-Aug-19 16:13 33.718796 -119.070248 120 19494ft 392kts
13-Aug-19 16:14 33.664294 -118.960121 121 17393ft 375kts
13-Aug-19 16:15 33.611758 -118.854905 121 15338ft 361kts
13-Aug-19 16:16 33.567475 -118.749149 105 13351ft 349kts
13-Aug-19 16:17 33.549304 -118.637078 101 11452ft 337kts
13-Aug-19 16:18 33.532093 -118.529679 102 10103ft 311kts
13-Aug-19 16:19 33.520434 -118.431453 92 8522ft 292kts
13-Aug-19 16:20 33.519932 -118.335426 82 7084ft 286kts
13-Aug-19 16:21 33.545645 -118.245866 71 5943ft 282kts
13-Aug-19 16:22 33.565916 -118.159141 67 4395ft 279kts
13-Aug-19 16:22 33.589219 -118.094678 66 4011ft 277kts
13-Aug-19 16:24 33.624182 -117.998932 66 3976ft 243kts
13-Aug-19 16:25 33.657297 -117.930487 47 3036ft 235kts
13-Aug-19 16:25 33.698857 -117.893404 26 2149ft 212kts
13-Aug-19 16:27 33.740483 -117.848645 104 1370ft 159kts
13-Aug-19 16:28 33.707380 -117.848848 204 752ft 134kts
13-Aug-19 16:28 33.679583 -117.866384 207 74ft 131kts
13-Aug-19 16:30 33.669141 -117.870902 45 64ft 13kts
13-Aug-19 16:30 33.672486 -117.867935 32 64ft 18kts
13-Aug-19 16:31 33.675883 -117.865060 111 64ft 5kts

Navigation Log

Ident Type
Flight plan parsing failed, navigation log unavailable